createdAt,value
2023-08-07T00:00:01.511Z,92.4
2023-08-07T00:01:02.181Z,92.5
2023-08-07T00:02:01.465Z,92.4
2023-08-07T00:03:02.033Z,92.4
2023-08-07T00:04:01.449Z,92.4
2023-08-07T00:05:03.512Z,92.5
2023-08-07T00:06:01.302Z,92.5
2023-08-07T00:07:01.855Z,92.5
2023-08-07T00:08:02.922Z,92.5
2023-08-07T00:09:03.334Z,92.5
2023-08-07T00:10:02.939Z,92.5
2023-08-07T00:11:01.625Z,92.5
2023-08-07T00:12:02.103Z,92.6
2023-08-07T00:13:01.596Z,92.6
2023-08-07T00:14:03.708Z,92.6
2023-08-07T00:15:01.508Z,92.6
2023-08-07T00:16:02.082Z,92.6
2023-08-07T00:17:01.444Z,92.6
2023-08-07T00:18:01.930Z,92.6
2023-08-07T00:19:03.034Z,92.6
2023-08-07T00:20:03.566Z,92.6
2023-08-07T00:21:01.298Z,92.6
2023-08-07T00:22:03.708Z,92.6
2023-08-07T00:23:03.893Z,92.6
2023-08-07T00:24:03.344Z,92.5
2023-08-07T00:25:02.143Z,92.5
2023-08-07T00:26:01.636Z,92.5
2023-08-07T00:27:03.726Z,92.5
2023-08-07T00:28:03.215Z,92.5
2023-08-07T00:29:02.003Z,92.5
2023-08-07T00:30:01.535Z,92.5
2023-08-07T00:31:02.052Z,92.5
2023-08-07T00:32:03.137Z,92.4
2023-08-07T00:33:03.613Z,92.5
2023-08-07T00:34:01.367Z,92.5
2023-08-07T00:35:01.870Z,92.5
2023-08-07T00:36:01.296Z,92.4
2023-08-07T00:37:03.421Z,92.4
2023-08-07T00:38:02.277Z,92.4
2023-08-07T00:39:03.344Z,92.5
2023-08-07T00:40:02.164Z,92.5
2023-08-07T00:41:03.290Z,92.5
2023-08-07T00:42:02.121Z,92.5
2023-08-07T00:43:01.581Z,92.5
2023-08-07T00:44:02.023Z,92.4
2023-08-07T00:45:03.150Z,92.5
2023-08-07T00:46:01.966Z,92.5
2023-08-07T00:47:01.545Z,92.5
2023-08-07T00:48:01.971Z,92.5
2023-08-07T00:49:03.646Z,92.5
2023-08-07T00:50:02.918Z,92.5
2023-08-07T00:51:01.756Z,92.4
2023-08-07T00:52:02.302Z,92.5
2023-08-07T00:53:01.748Z,92.5
2023-08-07T00:54:02.163Z,92.5
2023-08-07T00:55:03.242Z,92.5
2023-08-07T00:56:02.098Z,92.5
2023-08-07T00:57:03.206Z,92.5
2023-08-07T00:58:02.042Z,92.5
2023-08-07T00:59:01.491Z,92.5
2023-08-07T01:00:03.611Z,92.4
2023-08-07T01:01:01.534Z,92.4
2023-08-07T01:02:03.602Z,92.4
2023-08-07T01:03:01.570Z,92.4
2023-08-07T01:04:01.823Z,92.4
2023-08-07T01:05:02.906Z,92.4
2023-08-07T01:06:03.402Z,92.4
2023-08-07T01:07:03.876Z,92.4
2023-08-07T01:08:03.329Z,92.4
2023-08-07T01:09:02.096Z,92.4
2023-08-07T01:10:01.599Z,92.4
2023-08-07T01:11:03.691Z,92.4
2023-08-07T01:12:01.495Z,92.4
2023-08-07T01:13:02.000Z,92.4
2023-08-07T01:14:01.429Z,92.4
2023-08-07T01:15:01.906Z,92.5
2023-08-07T01:16:03.027Z,92.5
2023-08-07T01:17:01.913Z,92.4
2023-08-07T01:18:01.402Z,92.4
2023-08-07T01:19:01.753Z,92.4
2023-08-07T01:20:02.241Z,92.4
2023-08-07T01:21:03.304Z,92.4
2023-08-07T01:22:02.177Z,92.4
2023-08-07T01:23:01.643Z,92.4
2023-08-07T01:24:02.110Z,92.4
2023-08-07T01:25:03.217Z,92.4
2023-08-07T01:26:02.006Z,92.3
2023-08-07T01:27:02.136Z,92.3
2023-08-07T01:28:01.940Z,92.3
2023-08-07T01:29:03.046Z,92.3
2023-08-07T01:30:01.964Z,92.3
2023-08-07T01:31:01.363Z,92.2
2023-08-07T01:32:01.780Z,92.2
2023-08-07T01:33:02.974Z,92.2
2023-08-07T01:34:01.697Z,92.2
2023-08-07T01:35:03.858Z,92.2
2023-08-07T01:36:01.617Z,92.2
2023-08-07T01:37:03.749Z,92.2
2023-08-07T01:38:01.571Z,92.3
2023-08-07T01:39:02.063Z,92.3
2023-08-07T01:40:01.505Z,92.4
2023-08-07T01:41:01.969Z,92.4
2023-08-07T01:42:03.119Z,92.4
2023-08-07T01:43:01.891Z,92.3
2023-08-07T01:44:01.418Z,92.3
2023-08-07T01:45:03.470Z,92.3
2023-08-07T01:46:02.998Z,92.2
2023-08-07T01:47:03.468Z,92.3
2023-08-07T01:48:01.467Z,92.2
2023-08-07T01:49:01.790Z,92.2
2023-08-07T01:50:02.194Z,92.2
2023-08-07T01:51:03.317Z,92.3
2023-08-07T01:52:03.823Z,92.2
2023-08-07T01:53:01.634Z,92.2
2023-08-07T01:54:02.099Z,92.1
2023-08-07T01:55:01.580Z,92.1
2023-08-07T01:56:02.037Z,92.1
2023-08-07T01:57:01.502Z,92.1
2023-08-07T01:58:02.000Z,92.1
2023-08-07T01:59:01.419Z,92.2
2023-08-07T02:00:03.544Z,92.2
2023-08-07T02:01:02.979Z,92.2
2023-08-07T02:02:01.827Z,92.2
2023-08-07T02:03:01.330Z,92.2
2023-08-07T02:04:03.392Z,92.2
2023-08-07T02:05:02.209Z,92.1
2023-08-07T02:06:01.696Z,92.1
2023-08-07T02:07:02.814Z,92.1
2023-08-07T02:08:03.249Z,92.2
2023-08-07T02:09:02.095Z,92.2
2023-08-07T02:10:03.183Z,92.1
2023-08-07T02:11:03.681Z,92.1
2023-08-07T02:12:01.483Z,92.1
2023-08-07T02:13:03.610Z,92.1
2023-08-07T02:14:03.093Z,92.1
2023-08-07T02:15:01.858Z,92.1
2023-08-07T02:16:01.394Z,92.2
2023-08-07T02:17:01.826Z,92.2
2023-08-07T02:18:01.301Z,92.2
2023-08-07T02:19:03.437Z,92.2
2023-08-07T02:20:02.277Z,92.2
2023-08-07T02:21:03.350Z,92.2
2023-08-07T02:22:03.836Z,92.2
2023-08-07T02:23:01.640Z,92.2
2023-08-07T02:24:02.114Z,92.2
2023-08-07T02:25:01.650Z,92.2
2023-08-07T02:26:01.965Z,92.2
2023-08-07T02:27:03.114Z,92.2
2023-08-07T02:28:01.914Z,92.2
2023-08-07T02:29:01.422Z,92.3
2023-08-07T02:30:01.874Z,92.2
2023-08-07T02:31:01.307Z,92.2
2023-08-07T02:32:01.797Z,92.3
2023-08-07T02:33:02.971Z,92.3
2023-08-07T02:34:01.767Z,92.2
2023-08-07T02:35:02.215Z,92.3
2023-08-07T02:36:03.349Z,92.3
2023-08-07T02:37:03.761Z,92.3
2023-08-07T02:38:03.262Z,92.3
2023-08-07T02:39:02.074Z,92.4
2023-08-07T02:40:03.276Z,92.3
2023-08-07T02:41:02.010Z,92.3
2023-08-07T02:42:01.496Z,92.3
2023-08-07T02:43:01.971Z,92.3
2023-08-07T02:44:01.494Z,92.3
2023-08-07T02:45:01.921Z,92.3
2023-08-07T02:46:01.469Z,92.3
2023-08-07T02:47:01.869Z,92.2
2023-08-07T02:48:01.422Z,92.2
2023-08-07T02:49:01.802Z,92.3
2023-08-07T02:50:01.294Z,92.3
2023-08-07T02:51:01.740Z,92.3
2023-08-07T02:52:02.214Z,92.3
2023-08-07T02:53:01.714Z,92.2
2023-08-07T02:54:02.149Z,92.2
2023-08-07T02:55:01.650Z,92.2
2023-08-07T02:56:02.076Z,92.2
2023-08-07T02:57:03.205Z,92.2
2023-08-07T02:58:02.018Z,92.1
2023-08-07T02:59:03.140Z,92.1
2023-08-07T03:00:01.975Z,92.1
2023-08-07T03:01:03.084Z,92.1
2023-08-07T03:02:01.850Z,92.1
2023-08-07T03:03:01.372Z,92.1
2023-08-07T03:04:01.806Z,92.1
2023-08-07T03:05:02.959Z,92.1
2023-08-07T03:06:01.750Z,92.1
2023-08-07T03:07:02.273Z,92.1
2023-08-07T03:08:01.722Z,92.1
2023-08-07T03:09:03.868Z,92.1
2023-08-07T03:10:01.659Z,92.1
2023-08-07T03:11:03.822Z,92.1
2023-08-07T03:12:01.653Z,92.1
2023-08-07T03:13:02.060Z,92.1
2023-08-07T03:14:01.504Z,92.1
2023-08-07T03:15:02.055Z,92.1
2023-08-07T03:16:03.208Z,92.1
2023-08-07T03:17:03.609Z,92.1
2023-08-07T03:18:01.443Z,92.1
2023-08-07T03:19:03.490Z,92.1
2023-08-07T03:20:01.284Z,92.1
2023-08-07T03:21:03.439Z,92.1
2023-08-07T03:22:01.288Z,92.1
2023-08-07T03:23:03.390Z,92.1
2023-08-07T03:24:02.832Z,92.1
2023-08-07T03:25:01.690Z,92.1
2023-08-07T03:26:17.525Z,92.1
2023-08-07T03:27:01.551Z,92.1
2023-08-07T03:28:02.006Z,92.1
2023-08-07T03:29:03.180Z,92.1
2023-08-07T03:30:01.911Z,92.1
2023-08-07T03:31:01.453Z,92.1
2023-08-07T03:32:01.843Z,92.1
2023-08-07T03:33:01.347Z,92.1
2023-08-07T03:34:01.810Z,92.1
2023-08-07T03:35:02.915Z,92.1
2023-08-07T03:36:03.340Z,92.1
2023-08-07T03:37:03.823Z,92.1
2023-08-07T03:38:01.613Z,92.1
2023-08-07T03:39:02.143Z,92
2023-08-07T03:40:01.515Z,92.1
2023-08-07T03:41:03.671Z,92.1
2023-08-07T03:42:01.468Z,92.1
2023-08-07T03:43:01.980Z,92.1
2023-08-07T03:44:01.382Z,92.1
2023-08-07T03:45:01.912Z,92.1
2023-08-07T03:46:04.128Z,92.1
2023-08-07T03:47:01.784Z,92.1
2023-08-07T03:48:03.896Z,92.2
2023-08-07T03:49:01.808Z,92.2
2023-08-07T03:50:03.884Z,92.2
2023-08-07T03:51:03.250Z,92.2
2023-08-07T03:52:02.087Z,92.2
2023-08-07T03:53:01.562Z,92.1
2023-08-07T03:54:02.018Z,92.1
2023-08-07T03:55:03.184Z,92.1
2023-08-07T03:56:01.910Z,92.1
2023-08-07T03:57:03.057Z,92
2023-08-07T03:58:01.861Z,92
2023-08-07T03:59:01.332Z,92.1
2023-08-07T04:00:01.801Z,92.1
2023-08-07T04:01:02.967Z,92
2023-08-07T04:02:01.707Z,92
2023-08-07T04:03:02.342Z,92
2023-08-07T04:04:02.019Z,92
2023-08-07T04:05:01.475Z,92
2023-08-07T04:06:01.893Z,92
2023-08-07T04:07:02.976Z,92
2023-08-07T04:08:01.766Z,92
2023-08-07T04:09:01.276Z,92
2023-08-07T04:10:01.775Z,92
2023-08-07T04:11:03.974Z,92
2023-08-07T04:12:01.601Z,92
2023-08-07T04:13:02.111Z,92
2023-08-07T04:14:01.491Z,92
2023-08-07T04:15:03.631Z,92
2023-08-07T04:16:01.424Z,92
2023-08-07T04:17:03.537Z,91.9
2023-08-07T04:18:01.342Z,91.9
2023-08-07T04:19:01.756Z,91.9
2023-08-07T04:20:02.188Z,91.8
2023-08-07T04:21:03.366Z,91.7
2023-08-07T04:22:02.110Z,91.7
2023-08-07T04:23:01.592Z,91.7
2023-08-07T04:24:02.042Z,91.8
2023-08-07T04:25:01.548Z,91.7
2023-08-07T04:26:01.944Z,91.8
2023-08-07T04:27:01.478Z,91.9
2023-08-07T04:28:01.827Z,91.9
2023-08-07T04:29:01.309Z,91.8
2023-08-07T04:30:03.447Z,91.7
2023-08-07T04:31:02.255Z,91.7
2023-08-07T04:32:01.681Z,91.7
2023-08-07T04:33:03.849Z,91.6
2023-08-07T04:34:01.582Z,91.6
2023-08-07T04:35:03.757Z,91.6
2023-08-07T04:36:03.168Z,91.5
2023-08-07T04:37:03.729Z,91.4
2023-08-07T04:38:01.517Z,91.4
2023-08-07T04:39:02.052Z,91.3
2023-08-07T04:40:01.488Z,91.2
2023-08-07T04:41:02.015Z,91.1
2023-08-07T04:42:03.153Z,91
2023-08-07T04:43:01.995Z,91.1
2023-08-07T04:44:01.361Z,91
2023-08-07T04:45:03.514Z,90.9
2023-08-07T04:46:02.932Z,90.9
2023-08-07T04:47:03.450Z,91
2023-08-07T04:48:02.184Z,91
2023-08-07T04:49:03.343Z,91
2023-08-07T04:50:02.084Z,91.1
2023-08-07T04:51:03.281Z,91.1
2023-08-07T04:52:13.206Z,91
2023-08-07T04:53:03.155Z,90.8
2023-08-07T04:54:01.947Z,90.9
2023-08-07T04:55:03.070Z,90.9
2023-08-07T04:56:01.853Z,90.8
2023-08-07T04:57:01.332Z,90.9
2023-08-07T04:58:01.827Z,90.9
2023-08-07T04:59:02.239Z,90.9
2023-08-07T05:00:01.751Z,90.9
2023-08-07T05:01:02.175Z,91
2023-08-07T05:02:01.621Z,91
2023-08-07T05:03:03.856Z,91.1
2023-08-07T05:04:03.161Z,91.1
2023-08-07T05:05:01.944Z,91.2
2023-08-07T05:06:01.413Z,91.3
2023-08-07T05:07:03.537Z,91.3
2023-08-07T05:08:02.901Z,91.3
2023-08-07T05:09:03.377Z,91.2
2023-08-07T05:10:02.243Z,91
2023-08-07T05:11:01.663Z,90.9
2023-08-07T05:12:03.785Z,90.8
2023-08-07T05:13:01.623Z,90.7
2023-08-07T05:14:03.753Z,90.6
2023-08-07T05:15:01.521Z,90.6
2023-08-07T05:16:03.677Z,90.6
2023-08-07T05:17:01.449Z,90.6
2023-08-07T05:18:03.611Z,90.5
2023-08-07T05:19:01.406Z,90.4
2023-08-07T05:20:01.872Z,90.2
2023-08-07T05:21:01.311Z,90.1
2023-08-07T05:22:01.770Z,90.2
2023-08-07T05:23:02.932Z,90.1
2023-08-07T05:24:01.722Z,90.1
2023-08-07T05:25:03.819Z,90.2
2023-08-07T05:26:03.240Z,90.2
2023-08-07T05:27:02.112Z,90.2
2023-08-07T05:28:01.549Z,90.1
2023-08-07T05:29:02.062Z,90.2
2023-08-07T05:30:01.469Z,90.2
2023-08-07T05:31:03.672Z,90.2
2023-08-07T05:32:01.385Z,90.2
2023-08-07T05:33:03.585Z,90.1
2023-08-07T05:34:01.336Z,90
2023-08-07T05:35:01.787Z,90.1
2023-08-07T05:36:02.897Z,90.1
2023-08-07T05:38:46.391Z,89.9
2023-08-07T05:39:01.737Z,89.8
2023-08-07T05:40:03.813Z,89.9
2023-08-07T05:41:03.290Z,89.8
2023-08-07T05:42:02.027Z,89.6
2023-08-07T05:43:01.529Z,89.5
2023-08-07T05:44:02.011Z,89.6
2023-08-07T05:45:03.088Z,89.6
2023-08-07T05:46:03.563Z,89.6
2023-08-07T05:47:01.364Z,89.7
2023-08-07T05:48:03.584Z,89.9
2023-08-07T05:49:01.317Z,89.9
2023-08-07T05:50:03.411Z,90
2023-08-07T05:51:03.902Z,90.1
2023-08-07T05:52:03.333Z,90.3
2023-08-07T05:53:02.174Z,90.3
2023-08-07T05:54:01.604Z,90.3
2023-08-07T05:55:05.006Z,90.3
2023-08-07T05:56:01.527Z,90.3
2023-08-07T05:57:02.056Z,90.3
2023-08-07T05:58:01.517Z,90.4
2023-08-07T05:59:01.980Z,90.6
2023-08-07T06:00:01.449Z,90.7
2023-08-07T06:01:01.881Z,90.7
2023-08-07T06:02:01.739Z,90.8
2023-08-07T06:03:03.520Z,90.8
2023-08-07T06:04:02.254Z,90.9
2023-08-07T06:05:01.704Z,90.8
2023-08-07T06:06:02.170Z,90.8
2023-08-07T06:07:03.260Z,90.8
2023-08-07T06:08:03.713Z,90.8
2023-08-07T06:09:01.544Z,90.8
2023-08-07T06:10:02.018Z,90.9
2023-08-07T06:11:01.500Z,91
2023-08-07T06:12:03.611Z,91
2023-08-07T06:13:03.124Z,90.9
2023-08-07T06:14:01.885Z,91
2023-08-07T06:15:01.331Z,91
2023-08-07T06:16:01.945Z,91
2023-08-07T06:17:02.952Z,91
2023-08-07T06:18:01.785Z,91
2023-08-07T06:19:02.207Z,91.1
2023-08-07T06:20:01.641Z,91.1
2023-08-07T06:21:03.780Z,91.2
2023-08-07T06:22:01.978Z,91.2
2023-08-07T06:23:03.745Z,91.2
2023-08-07T06:24:03.147Z,91.1
2023-08-07T06:25:03.650Z,91.1
2023-08-07T06:26:01.440Z,91.1
2023-08-07T06:27:03.558Z,91
2023-08-07T06:28:01.366Z,91.1
2023-08-07T06:29:01.883Z,90.9
2023-08-07T06:30:01.306Z,90.9
2023-08-07T06:31:01.764Z,90.9
2023-08-07T06:32:03.905Z,90.9
2023-08-07T06:33:03.299Z,90.8
2023-08-07T06:34:03.814Z,90.8
2023-08-07T06:35:01.620Z,90.8
2023-08-07T06:36:02.059Z,90.8
2023-08-07T06:37:03.181Z,90.8
2023-08-07T06:38:03.581Z,90.8
2023-08-07T06:39:01.440Z,90.8
2023-08-07T06:40:03.582Z,90.8
2023-08-07T06:41:03.013Z,90.8
2023-08-07T06:42:01.811Z,90.7
2023-08-07T06:43:02.260Z,90.9
2023-08-07T06:44:03.367Z,90.9
2023-08-07T06:45:03.760Z,91
2023-08-07T06:46:03.192Z,91
2023-08-07T06:47:02.091Z,91
2023-08-07T06:48:01.616Z,91.1
2023-08-07T06:49:02.115Z,91.1
2023-08-07T06:50:01.521Z,91.1
2023-08-07T06:51:01.923Z,91
2023-08-07T06:52:01.390Z,91
2023-08-07T06:53:01.878Z,91
2023-08-07T06:54:02.964Z,91.1
2023-08-07T06:55:01.756Z,91.2
2023-08-07T06:56:02.232Z,91.2
2023-08-07T06:57:03.324Z,91.1
2023-08-07T06:58:02.170Z,91.1
2023-08-07T06:59:01.610Z,91.1
2023-08-07T07:00:02.125Z,91.1
2023-08-07T07:01:01.553Z,91.2
2023-08-07T07:02:03.654Z,91.2
2023-08-07T07:03:01.491Z,91.3
2023-08-07T07:04:01.994Z,91.2
2023-08-07T07:05:02.995Z,91.1
2023-08-07T07:06:01.828Z,91.1
2023-08-07T07:07:01.274Z,91.2
2023-08-07T07:08:01.753Z,91.2
2023-08-07T07:09:02.230Z,91.2
2023-08-07T07:10:01.688Z,91.3
2023-08-07T07:11:02.149Z,91.2
2023-08-07T07:12:03.288Z,91.1
2023-08-07T07:13:03.704Z,91
2023-08-07T07:14:03.202Z,90.9
2023-08-07T07:15:01.977Z,90.9
2023-08-07T07:16:01.473Z,91
2023-08-07T07:17:03.504Z,90.9
2023-08-07T07:18:03.037Z,90.9
2023-08-07T07:19:01.790Z,90.9
2023-08-07T07:20:02.272Z,90.9
2023-08-07T07:21:03.318Z,90.9
2023-08-07T07:22:02.183Z,90.8
2023-08-07T07:23:01.604Z,90.7
2023-08-07T07:24:03.694Z,90.8
2023-08-07T07:25:01.482Z,90.9
2023-08-07T07:26:01.946Z,90.9
2023-08-07T07:27:01.399Z,90.9
2023-08-07T07:28:01.885Z,90.9
2023-08-07T07:29:01.245Z,90.7
2023-08-07T07:30:01.701Z,90.6
2023-08-07T07:31:03.862Z,90.4
2023-08-07T07:32:01.805Z,90.3
2023-08-07T07:33:02.156Z,90.2
2023-08-07T07:34:01.539Z,90.3
2023-08-07T07:35:03.650Z,90.3
2023-08-07T07:36:01.448Z,90.4
2023-08-07T07:37:03.567Z,90.5
2023-08-07T07:38:01.393Z,90.6
2023-08-07T07:39:01.827Z,90.7
2023-08-07T07:40:01.256Z,90.7
2023-08-07T07:41:03.378Z,90.8
2023-08-07T07:42:02.186Z,90.9
2023-08-07T07:43:01.635Z,90.9
2023-08-07T07:44:02.132Z,90.9
2023-08-07T07:45:01.566Z,90.7
2023-08-07T07:46:02.136Z,90.7
2023-08-07T07:47:01.532Z,90.7
2023-08-07T07:48:02.039Z,90.8
2023-08-07T07:49:01.434Z,90.9
2023-08-07T07:50:03.514Z,90.9
2023-08-07T07:51:01.333Z,90.9
2023-08-07T07:52:01.821Z,90.9
2023-08-07T07:53:01.318Z,91
2023-08-07T07:54:14.286Z,91
2023-08-07T07:55:03.908Z,91
2023-08-07T07:56:01.645Z,91
2023-08-07T07:57:03.726Z,91
2023-08-07T07:58:01.533Z,91.1
2023-08-07T07:59:03.645Z,91.1
2023-08-07T08:00:02.178Z,91.1
2023-08-07T08:01:03.531Z,91
2023-08-07T08:02:02.998Z,90.9
2023-08-07T08:03:03.469Z,90.6
2023-08-07T08:04:02.350Z,90.4
2023-08-07T08:05:01.743Z,90.2
2023-08-07T08:06:03.776Z,90.3
2023-08-07T08:07:03.237Z,90.4
2023-08-07T08:08:02.061Z,90.2
2023-08-07T08:09:01.561Z,90.1
2023-08-07T08:10:02.016Z,90.2
2023-08-07T08:11:03.801Z,90.3
2023-08-07T08:12:01.980Z,90.3
2023-08-07T08:13:03.120Z,90.2
2023-08-07T08:14:01.896Z,89.9
2023-08-07T08:15:01.318Z,89.7
2023-08-07T08:16:01.822Z,89.7
2023-08-07T08:17:03.893Z,89.9
2023-08-07T08:18:01.738Z,89.9
2023-08-07T08:19:02.169Z,89.8
2023-08-07T08:20:03.238Z,89.9
2023-08-07T08:21:03.694Z,89.8
2023-08-07T08:22:03.186Z,89.6
2023-08-07T08:23:01.991Z,89.5
2023-08-07T08:24:01.443Z,89.6
2023-08-07T08:25:03.504Z,89.9
2023-08-07T08:26:01.327Z,89.9
2023-08-07T08:27:01.752Z,90.1
2023-08-07T08:28:01.325Z,90.2
2023-08-07T08:29:01.681Z,90
2023-08-07T08:30:02.208Z,89.9
2023-08-07T08:31:01.640Z,89.9
2023-08-07T08:32:02.162Z,89.9
2023-08-07T08:33:01.609Z,90
2023-08-07T08:34:02.061Z,90.1
2023-08-07T08:35:01.454Z,90
2023-08-07T08:36:03.635Z,90.1
2023-08-07T08:37:01.431Z,90.2
2023-08-07T08:38:03.518Z,90.3
2023-08-07T08:39:02.699Z,90.1
2023-08-07T08:40:03.464Z,90.1
2023-08-07T08:41:01.264Z,90.1
2023-08-07T08:42:01.779Z,90.1
2023-08-07T08:43:02.212Z,90.2
2023-08-07T08:44:01.657Z,90.3
2023-08-07T08:45:03.768Z,90.3
2023-08-07T08:46:01.551Z,90.3
2023-08-07T08:47:02.107Z,90.2
2023-08-07T08:48:01.515Z,89.9
2023-08-07T08:49:01.966Z,89.8
2023-08-07T08:50:01.434Z,89.5
2023-08-07T08:51:01.959Z,89
2023-08-07T08:52:01.377Z,88.8
2023-08-07T08:53:01.881Z,88.8
2023-08-07T08:54:02.976Z,89
2023-08-07T08:55:03.374Z,89.1
2023-08-07T08:56:02.194Z,89.2
2023-08-07T08:57:01.681Z,89.3
2023-08-07T08:58:03.804Z,88.9
2023-08-07T08:59:03.220Z,89
2023-08-07T09:00:02.030Z,89.1
2023-08-07T09:01:01.552Z,89.1
2023-08-07T09:02:01.953Z,89
2023-08-07T09:06:01.816Z,88.8
2023-08-07T09:07:03.911Z,89.1
2023-08-07T09:08:03.310Z,89.1
2023-08-07T09:09:03.781Z,88.8
2023-08-07T09:10:01.591Z,88.7
2023-08-07T09:11:02.025Z,88.9
2023-08-07T09:12:01.471Z,89
2023-08-07T09:13:03.578Z,88.9
2023-08-07T09:14:01.405Z,89
2023-08-07T09:15:01.889Z,89
2023-08-07T09:16:01.338Z,88.4
2023-08-07T09:17:01.838Z,88.2
2023-08-07T09:18:02.350Z,87.8
2023-08-07T09:19:05.198Z,87.6
2023-08-07T09:20:02.191Z,87.7
2023-08-07T09:21:01.629Z,87.9
2023-08-07T09:22:02.088Z,88.1
2023-08-07T09:23:03.151Z,88.2
2023-08-07T09:24:03.661Z,88.1
2023-08-07T09:25:01.482Z,87.3
2023-08-07T09:26:03.539Z,87.2
2023-08-07T09:27:01.378Z,86.6
2023-08-07T09:28:03.438Z,86.3
2023-08-07T09:29:02.963Z,86.1
2023-08-07T09:30:01.779Z,86.1
2023-08-07T09:31:03.974Z,86.6
2023-08-07T09:32:03.279Z,87
2023-08-07T09:33:02.191Z,87.2
2023-08-07T09:34:01.552Z,87.6
2023-08-07T09:35:03.731Z,87.7
2023-08-07T09:36:01.544Z,87.2
2023-08-07T09:37:02.016Z,87.2
2023-08-07T09:38:01.474Z,87.2
2023-08-07T09:39:03.577Z,86.5
2023-08-07T09:40:01.385Z,86.1
2023-08-07T09:41:03.531Z,86.8
2023-08-07T09:42:01.324Z,87.2
2023-08-07T09:43:03.444Z,86.6
2023-08-07T09:44:02.198Z,86.1
2023-08-07T09:45:03.374Z,86.4
2023-08-07T09:46:02.192Z,86.7
2023-08-07T09:47:01.679Z,86.9
2023-08-07T09:48:02.284Z,86.4
2023-08-07T09:49:01.558Z,86
2023-08-07T09:50:03.642Z,86.5
2023-08-07T09:51:01.490Z,87.3
2023-08-07T09:52:01.898Z,87
2023-08-07T09:53:01.406Z,87
2023-08-07T09:54:01.789Z,86.9
2023-08-07T09:56:01.745Z,86.7
2023-08-07T09:57:01.608Z,86
2023-08-07T09:58:01.881Z,85.5
2023-08-07T09:59:01.329Z,85.9
2023-08-07T10:00:03.527Z,86
2023-08-07T10:01:04.011Z,85.1
2023-08-07T10:02:03.398Z,85.3
2023-08-07T10:03:02.253Z,86.3
2023-08-07T10:04:01.584Z,87.1
2023-08-07T10:05:02.094Z,86.6
2023-08-07T10:06:01.505Z,85.8
2023-08-07T10:07:02.047Z,85.9
2023-08-07T10:08:01.462Z,85.2
2023-08-07T10:09:03.555Z,84.5
2023-08-07T10:10:01.344Z,84.5
2023-08-07T10:11:03.450Z,86.1
2023-08-07T10:12:03.811Z,85.7
2023-08-07T10:13:03.385Z,85.7
2023-08-07T10:14:02.145Z,84.6
2023-08-07T10:15:01.649Z,83.4
2023-08-07T10:16:02.097Z,83.5
2023-08-07T10:17:03.202Z,82.7
2023-08-07T10:18:02.102Z,82.7
2023-08-07T10:19:03.151Z,83.6
2023-08-07T10:20:01.979Z,84.3
2023-08-07T10:21:03.039Z,84.7
2023-08-07T10:22:01.821Z,84.7
2023-08-07T10:23:01.322Z,85.2
2023-08-07T10:24:01.767Z,85.2
2023-08-07T10:25:02.327Z,84.6
2023-08-07T10:26:03.401Z,85.5
2023-08-07T10:27:03.838Z,85.1
2023-08-07T10:28:01.648Z,85.3
2023-08-07T10:29:02.093Z,84.8
2023-08-07T10:30:01.493Z,84.1
2023-08-07T10:31:02.026Z,84.3
2023-08-07T10:32:01.461Z,83.8
2023-08-07T10:33:03.574Z,84.1
2023-08-07T10:34:02.950Z,84.2
2023-08-07T10:35:03.458Z,83.9
2023-08-07T10:36:03.896Z,83.4
2023-08-07T10:37:01.708Z,84.2
2023-08-07T10:38:02.161Z,84.2
2023-08-07T10:39:03.243Z,83.5
2023-08-07T10:40:02.056Z,82.8
2023-08-07T10:41:01.544Z,82.5
2023-08-07T10:42:02.006Z,83.6
2023-08-07T10:43:01.529Z,83
2023-08-07T10:44:01.864Z,83.5
2023-08-07T10:45:01.415Z,83.4
2023-08-07T10:46:01.875Z,83.5
2023-08-07T10:47:01.564Z,83.5
2023-08-07T10:48:03.452Z,83.1
2023-08-07T10:49:03.874Z,83.1
2023-08-07T10:50:01.615Z,82.9
2023-08-07T10:51:02.120Z,82.5
2023-08-07T10:52:01.559Z,82.7
2023-08-07T10:53:02.084Z,83.2
2023-08-07T10:54:01.471Z,83.1
2023-08-07T10:55:03.636Z,82.4
2023-08-07T10:56:01.394Z,82.1
2023-08-07T10:57:01.887Z,82.6
2023-08-07T10:58:01.338Z,83.2
2023-08-07T10:59:01.793Z,82.6
2023-08-07T11:00:03.848Z,82.5
2023-08-07T11:01:01.692Z,82.4
2023-08-07T11:02:02.179Z,82.2
2023-08-07T11:03:01.779Z,81.6
2023-08-07T11:04:02.037Z,81.2
2023-08-07T11:05:03.282Z,81.5
2023-08-07T11:06:01.954Z,81
2023-08-07T11:07:01.460Z,81.1
2023-08-07T11:08:03.583Z,81.2
2023-08-07T11:09:03.015Z,81.6
2023-08-07T11:10:01.792Z,81.4
2023-08-07T11:11:02.920Z,81.5
2023-08-07T11:12:01.690Z,81.6
2023-08-07T11:13:03.913Z,81.2
2023-08-07T11:14:03.300Z,80.8
2023-08-07T11:15:04.310Z,80.4
2023-08-07T11:16:03.611Z,80.2
2023-08-07T11:17:01.386Z,80.6
2023-08-07T11:18:03.483Z,81.9
2023-08-07T11:19:02.953Z,82.3
2023-08-07T11:20:01.738Z,82
2023-08-07T11:21:02.243Z,82.6
2023-08-07T11:22:01.667Z,81.3
2023-08-07T11:23:02.198Z,82.3
2023-08-07T11:24:01.604Z,80.2
2023-08-07T11:25:02.129Z,79.9
2023-08-07T11:26:01.564Z,80.1
2023-08-07T11:27:04.887Z,80.1
2023-08-07T11:28:01.474Z,81.6
2023-08-07T11:29:03.616Z,80.9
2023-08-07T11:30:03.021Z,82
2023-08-07T11:31:01.979Z,82.2
2023-08-07T11:32:02.966Z,80.2
2023-08-07T11:33:03.554Z,78.5
2023-08-07T11:34:02.889Z,80.6
2023-08-07T11:35:01.759Z,79.7
2023-08-07T11:36:02.228Z,77.6
2023-08-07T11:37:03.388Z,79
2023-08-07T11:38:02.115Z,77.8
2023-08-07T11:39:01.615Z,78.2
2023-08-07T11:40:02.098Z,78.8
2023-08-07T11:41:03.215Z,79
2023-08-07T11:42:01.975Z,80.2
2023-08-07T11:43:03.141Z,80.7
2023-08-07T11:44:03.490Z,81.3
2023-08-07T11:45:01.401Z,82.5
2023-08-07T11:46:01.902Z,82.8
2023-08-07T11:47:01.296Z,83.3
2023-08-07T11:48:01.814Z,83.4
2023-08-07T11:49:03.901Z,83.5
2023-08-07T11:50:01.638Z,84
2023-08-07T11:51:02.115Z,84
2023-08-07T11:52:01.633Z,84.5
2023-08-07T11:53:03.697Z,85.3
2023-08-07T11:54:03.117Z,85.5
2023-08-07T11:55:04.219Z,85.5
2023-08-07T11:56:03.486Z,85.7
2023-08-07T11:57:01.343Z,85.6
2023-08-07T11:58:01.793Z,86
2023-08-07T11:59:03.909Z,86.2
2023-08-07T12:00:03.310Z,85.5
2023-08-07T12:01:02.241Z,85.8
2023-08-07T12:02:01.659Z,85.9
2023-08-07T12:03:02.192Z,86.6
2023-08-07T12:04:03.104Z,85.7
2023-08-07T12:05:03.651Z,86
2023-08-07T12:06:01.450Z,86.4
2023-08-07T12:07:03.581Z,86.4
2023-08-07T12:08:01.376Z,87
2023-08-07T12:09:01.854Z,86.3
2023-08-07T12:10:01.249Z,86.6
2023-08-07T12:11:03.384Z,85.3
2023-08-07T12:12:02.217Z,84.9
2023-08-07T12:13:03.341Z,84.5
2023-08-07T12:14:02.111Z,84.5
2023-08-07T12:15:01.599Z,84.4
2023-08-07T12:16:03.725Z,84.2
2023-08-07T12:17:03.128Z,82.5
2023-08-07T12:18:01.992Z,82.2
2023-08-07T12:19:01.451Z,82.6
2023-08-07T12:20:01.925Z,83.9
2023-08-07T12:21:03.006Z,82.7
2023-08-07T12:22:03.436Z,82.7
2023-08-07T12:23:01.283Z,82.1
2023-08-07T12:24:03.350Z,81.9
2023-08-07T12:25:02.244Z,82.4
2023-08-07T12:26:03.293Z,83.1
2023-08-07T12:27:02.169Z,83.6
2023-08-07T12:28:01.624Z,82.8
2023-08-07T12:29:02.110Z,82.2
2023-08-07T12:30:03.221Z,80.4
2023-08-07T12:31:03.770Z,80.6
2023-08-07T12:32:03.124Z,80.2
2023-08-07T12:33:01.980Z,79.8
2023-08-07T12:36:02.963Z,78.9
2023-08-07T12:37:03.407Z,78.2
2023-08-07T12:38:03.910Z,77.8
2023-08-07T12:39:01.685Z,77.7
2023-08-07T12:41:03.634Z,77.1
2023-08-07T12:43:03.215Z,79.3
2023-08-07T12:44:01.950Z,79.2
2023-08-07T12:45:03.107Z,79.5
2023-08-07T12:47:01.657Z,79.8
2023-08-07T12:48:01.796Z,79.1
2023-08-07T12:49:02.232Z,78.1
2023-08-07T12:50:01.694Z,77.6
2023-08-07T12:51:02.172Z,78
2023-08-07T12:52:04.910Z,79.8
2023-08-07T12:53:03.768Z,78
2023-08-07T12:54:03.180Z,77
2023-08-07T12:55:03.572Z,77.5
2023-08-07T12:56:03.022Z,77.4
2023-08-07T12:57:03.489Z,76.6
2023-08-07T12:58:01.324Z,75.8
2023-08-07T12:59:03.406Z,76.6
2023-08-07T13:00:03.853Z,75.1
2023-08-07T13:01:01.716Z,74.7
2023-08-07T13:02:03.772Z,75.4
2023-08-07T13:03:01.600Z,73.9
2023-08-07T13:04:02.046Z,74.3
2023-08-07T13:05:03.103Z,75.3
2023-08-07T13:06:01.921Z,74.8
2023-08-07T13:07:01.665Z,74.6
2023-08-07T13:08:03.500Z,74.2
2023-08-07T13:09:02.941Z,75
2023-08-07T13:10:03.400Z,74
2023-08-07T13:11:02.199Z,73.8
2023-08-07T13:12:01.665Z,73.6
2023-08-07T13:13:02.147Z,74.2
2023-08-07T13:14:02.217Z,73.8
2023-08-07T13:15:02.021Z,73.8
2023-08-07T13:16:01.528Z,72.7
2023-08-07T13:17:03.595Z,74.9
2023-08-07T13:18:01.517Z,73.5
2023-08-07T13:19:05.350Z,74.1
2023-08-07T13:20:01.338Z,74.7
2023-08-07T13:21:01.873Z,73.9
2023-08-07T13:22:02.243Z,74.9
2023-08-07T13:23:01.706Z,73.9
2023-08-07T13:24:02.183Z,74
2023-08-07T13:25:01.626Z,75.2
2023-08-07T13:26:02.124Z,75.7
2023-08-07T13:27:03.161Z,74.4
2023-08-07T13:28:02.021Z,74
2023-08-07T13:29:03.116Z,73.1
2023-08-07T13:30:01.914Z,73.9
2023-08-07T13:31:03.070Z,74.3
2023-08-07T13:32:01.873Z,75.1
2023-08-07T13:33:01.368Z,76
2023-08-07T13:34:01.756Z,75.9